createdAt,value
2022-08-08T00:00:56.240Z,7.20
2022-08-08T00:03:44.984Z,6.72
2022-08-08T00:07:08.927Z,6.88
2022-08-08T00:10:28.528Z,6.43
2022-08-08T00:14:15.610Z,6.07
2022-08-08T00:17:22.751Z,6.03
2022-08-08T00:20:37.843Z,5.93
2022-08-08T00:23:51.421Z,5.90
2022-08-08T00:26:56.824Z,6.03
2022-08-08T00:30:03.280Z,6.20
2022-08-08T00:33:15.738Z,6.30
2022-08-08T00:36:29.022Z,5.80
2022-08-08T00:41:08.977Z,5.80
2022-08-08T00:44:10.199Z,5.53
2022-08-08T00:47:36.996Z,5.30
2022-08-08T00:51:38.420Z,5.45
2022-08-08T00:55:22.254Z,5.82
2022-08-08T00:59:44.452Z,5.75
2022-08-08T01:04:00.838Z,5.80
2022-08-08T01:07:10.605Z,5.82
2022-08-08T01:11:03.152Z,6.00
2022-08-08T01:14:53.400Z,6.05
2022-08-08T01:18:52.373Z,5.82
2022-08-08T01:22:11.740Z,5.95
2022-08-08T01:25:54.226Z,6.32
2022-08-08T01:29:35.458Z,6.15
2022-08-08T01:33:43.169Z,6.05
2022-08-08T01:37:56.505Z,6.05
2022-08-08T01:41:20.177Z,6.18
2022-08-08T01:44:40.398Z,5.50
2022-08-08T01:48:23.614Z,5.63
2022-08-08T01:51:32.017Z,6.70
2022-08-08T01:55:45.379Z,4.80
2022-08-08T01:58:46.469Z,5.70
2022-08-08T02:02:32.269Z,6.05
2022-08-08T02:06:32.223Z,6.50
2022-08-08T02:10:11.772Z,6.40
2022-08-08T02:13:53.924Z,6.57
2022-08-08T02:17:20.315Z,6.20
2022-08-08T02:21:02.776Z,5.88
2022-08-08T02:24:24.996Z,6.63
2022-08-08T02:27:42.516Z,5.93
2022-08-08T02:31:04.733Z,7.10
2022-08-08T02:34:32.739Z,6.40
2022-08-08T02:38:01.301Z,6.53
2022-08-08T02:42:04.011Z,6.95
2022-08-08T02:48:33.851Z,6.20
2022-08-08T02:51:56.615Z,6.78
2022-08-08T02:55:37.350Z,7.93
2022-08-08T02:59:56.875Z,7.50
2022-08-08T03:03:09.419Z,10.32
2022-08-08T03:06:40.546Z,9.55
2022-08-08T03:10:01.176Z,8.98
2022-08-08T03:16:03.864Z,9.13
2022-08-08T03:17:20.111Z,8.93
2022-08-08T03:20:27.432Z,8.70
2022-08-08T03:23:39.751Z,10.18
2022-08-08T03:26:48.285Z,9.20
2022-08-08T03:29:57.226Z,9.82
2022-08-08T03:33:07.907Z,10.70
2022-08-08T03:36:31.454Z,11.50
2022-08-08T03:39:51.592Z,10.55
2022-08-08T03:43:18.291Z,10.15
2022-08-08T03:46:25.524Z,10.17
2022-08-08T03:49:58.380Z,9.35
2022-08-08T03:52:56.738Z,10.32
2022-08-08T03:56:04.761Z,11.18
2022-08-08T03:59:22.674Z,10.15
2022-08-08T04:02:36.463Z,10.13
2022-08-08T04:05:50.039Z,10.35
2022-08-08T04:08:55.149Z,10.45
2022-08-08T04:15:11.752Z,10.63
2022-08-08T04:18:17.187Z,12.63
2022-08-08T04:21:23.328Z,12.93
2022-08-08T04:24:30.924Z,15.70
2022-08-08T04:28:01.498Z,14.82
2022-08-08T04:30:57.791Z,15.20
2022-08-08T04:34:02.547Z,16.30
2022-08-08T04:37:04.302Z,15.27
2022-08-08T04:40:12.185Z,14.27
2022-08-08T04:43:31.844Z,13.02
2022-08-08T04:46:46.281Z,12.60
2022-08-08T04:50:01.104Z,13.50
2022-08-08T04:53:52.081Z,11.95
2022-08-08T04:56:33.239Z,10.85
2022-08-08T04:59:42.144Z,11.57
2022-08-08T05:02:44.990Z,12.63
2022-08-08T05:05:46.708Z,11.70
2022-08-08T05:08:56.540Z,11.93
2022-08-08T05:12:06.588Z,11.18
2022-08-08T05:15:13.763Z,10.70
2022-08-08T05:18:16.559Z,11.35
2022-08-08T05:21:19.318Z,9.85
2022-08-08T05:24:22.554Z,10.05
2022-08-08T05:27:33.315Z,9.27
2022-08-08T05:30:37.986Z,10.27
2022-08-08T05:33:44.228Z,8.55
2022-08-08T05:36:53.626Z,8.55
2022-08-08T05:40:02.906Z,8.43
2022-08-08T05:43:38.254Z,8.25
2022-08-08T05:46:35.686Z,7.18
2022-08-08T05:49:41.583Z,5.43
2022-08-08T05:52:57.045Z,4.60
2022-08-08T05:56:20.109Z,4.57
2022-08-08T06:00:00.907Z,4.60
2022-08-08T06:03:01.157Z,4.38
2022-08-08T06:06:05.211Z,4.47
2022-08-08T06:09:58.483Z,4.15
2022-08-08T06:12:31.909Z,3.92
2022-08-08T06:15:49.886Z,3.70
2022-08-08T06:19:00.070Z,3.20
2022-08-08T06:22:32.038Z,3.35
2022-08-08T06:26:36.210Z,3.67
2022-08-08T06:29:04.104Z,3.45
2022-08-08T06:32:29.823Z,3.97
2022-08-08T06:36:06.902Z,4.30
2022-08-08T06:38:55.789Z,4.10
2022-08-08T06:41:59.894Z,4.35
2022-08-08T06:45:14.965Z,4.47
2022-08-08T06:48:16.936Z,3.78
2022-08-08T06:51:20.935Z,3.55
2022-08-08T06:54:25.784Z,3.58
2022-08-08T06:57:29.044Z,3.25
2022-08-08T07:00:40.852Z,3.00
2022-08-08T07:04:39.898Z,2.35
2022-08-08T07:07:32.808Z,2.20
2022-08-08T07:10:47.593Z,2.28
2022-08-08T07:14:00.380Z,2.10
2022-08-08T07:17:14.569Z,2.25
2022-08-08T07:20:28.280Z,2.15
2022-08-08T07:24:01.768Z,1.80
2022-08-08T07:27:12.022Z,2.22
2022-08-08T07:30:26.118Z,1.80
2022-08-08T07:33:37.916Z,1.60
2022-08-08T07:36:48.213Z,1.60
2022-08-08T07:39:59.794Z,1.58
2022-08-08T07:43:09.492Z,1.65
2022-08-08T07:46:23.548Z,1.70
2022-08-08T07:49:34.281Z,1.52
2022-08-08T07:52:43.639Z,1.73
2022-08-08T07:55:51.440Z,1.48
2022-08-08T07:58:53.929Z,1.40
2022-08-08T08:02:34.768Z,1.52
2022-08-08T08:05:33.440Z,1.58
2022-08-08T08:08:38.592Z,1.48
2022-08-08T08:11:52.574Z,1.50
2022-08-08T08:15:07.487Z,1.40
2022-08-08T08:18:16.615Z,1.25
2022-08-08T08:21:52.886Z,1.40
2022-08-08T08:25:10.410Z,1.38
2022-08-08T08:28:21.531Z,1.65
2022-08-08T08:31:27.911Z,1.60
2022-08-08T08:34:32.432Z,1.70
2022-08-08T08:37:43.896Z,1.77
2022-08-08T08:40:58.890Z,1.92
2022-08-08T08:44:14.305Z,1.55
2022-08-08T08:47:18.763Z,1.38
2022-08-08T08:50:34.003Z,1.50
2022-08-08T08:53:55.923Z,1.40
2022-08-08T08:57:15.541Z,1.40
2022-08-08T09:00:19.517Z,1.38
2022-08-08T09:03:23.978Z,1.30
2022-08-08T09:06:50.136Z,1.60
2022-08-08T09:09:57.490Z,1.85
2022-08-08T09:13:08.188Z,1.58
2022-08-08T09:16:10.829Z,1.40
2022-08-08T09:19:29.163Z,1.70
2022-08-08T09:22:39.463Z,1.95
2022-08-08T09:26:02.243Z,1.63
2022-08-08T09:29:13.453Z,1.38
2022-08-08T09:32:34.310Z,1.25
2022-08-08T09:35:38.618Z,1.70
2022-08-08T09:38:59.816Z,1.58
2022-08-08T09:42:20.649Z,1.77
2022-08-08T09:45:55.282Z,1.70
2022-08-08T09:48:54.827Z,1.92
2022-08-08T09:52:01.648Z,2.05
2022-08-08T09:55:08.902Z,1.73
2022-08-08T09:58:27.636Z,2.00
2022-08-08T10:02:00.298Z,1.48
2022-08-08T10:05:15.007Z,2.20
2022-08-08T10:08:16.965Z,1.67
2022-08-08T10:12:26.405Z,1.80
2022-08-08T10:14:44.585Z,1.80
2022-08-08T10:18:06.303Z,1.80
2022-08-08T10:21:25.182Z,1.83
2022-08-08T10:24:34.815Z,1.70
2022-08-08T10:27:41.850Z,1.60
2022-08-08T10:31:01.127Z,2.05
2022-08-08T10:34:21.140Z,1.60
2022-08-08T10:37:30.298Z,1.70
2022-08-08T10:40:32.726Z,1.48
2022-08-08T10:43:43.119Z,1.30
2022-08-08T10:46:48.403Z,1.73
2022-08-08T10:50:01.320Z,1.50
2022-08-08T10:53:07.721Z,1.60
2022-08-08T10:56:26.941Z,1.40
2022-08-08T10:59:31.173Z,1.45
2022-08-08T11:05:42.965Z,1.80
2022-08-08T11:09:01.009Z,1.50
2022-08-08T11:12:13.228Z,1.60
2022-08-08T11:15:17.809Z,1.60
2022-08-08T11:18:19.560Z,1.42
2022-08-08T11:21:22.475Z,1.75
2022-08-08T11:24:37.072Z,1.77
2022-08-08T11:27:44.555Z,1.75
2022-08-08T11:30:50.284Z,1.85
2022-08-08T11:34:01.573Z,1.60
2022-08-08T11:37:15.355Z,1.60
2022-08-08T11:40:22.378Z,1.70
2022-08-08T11:43:24.644Z,1.33
2022-08-08T11:49:33.413Z,1.40
2022-08-08T11:52:40.444Z,1.65
2022-08-08T11:55:50.057Z,1.90
2022-08-08T11:58:52.437Z,1.43
2022-08-08T12:02:31.049Z,1.95
2022-08-08T12:05:34.336Z,1.70
2022-08-08T12:08:37.551Z,1.67
2022-08-08T12:11:41.616Z,1.40
2022-08-08T12:14:43.243Z,1.65
2022-08-08T12:17:56.707Z,1.50
2022-08-08T12:20:59.953Z,1.65
2022-08-08T12:24:06.224Z,1.55
2022-08-08T12:27:18.299Z,1.75
2022-08-08T12:30:30.738Z,1.23
2022-08-08T12:33:37.504Z,1.67
2022-08-08T12:37:03.244Z,1.52
2022-08-08T12:40:23.553Z,1.50
2022-08-08T12:43:32.777Z,1.70
2022-08-08T12:47:00.116Z,1.70
2022-08-08T12:50:02.937Z,1.40
2022-08-08T12:53:04.451Z,1.50
2022-08-08T12:56:19.258Z,1.60
2022-08-08T12:59:44.619Z,1.60
2022-08-08T13:02:58.268Z,1.50
2022-08-08T13:06:13.264Z,1.70
2022-08-08T13:09:15.517Z,1.90
2022-08-08T13:12:37.710Z,1.73
2022-08-08T13:15:42.228Z,1.70
2022-08-08T13:19:01.660Z,2.10
2022-08-08T13:22:15.971Z,2.03
2022-08-08T13:25:21.329Z,1.83
2022-08-08T13:28:31.884Z,1.90
2022-08-08T13:31:34.104Z,2.10
2022-08-08T13:34:39.910Z,2.20
2022-08-08T13:38:04.587Z,2.17
2022-08-08T13:41:04.177Z,2.15
2022-08-08T13:44:07.546Z,1.83
2022-08-08T13:47:18.411Z,1.95
2022-08-08T13:50:35.830Z,1.77
2022-08-08T13:53:59.884Z,1.83
2022-08-08T13:57:02.265Z,2.22
2022-08-08T14:00:08.313Z,1.75
2022-08-08T14:03:54.501Z,1.85
2022-08-08T14:06:47.144Z,1.58
2022-08-08T14:10:02.553Z,1.70
2022-08-08T14:13:07.439Z,1.70
2022-08-08T14:16:22.683Z,1.77
2022-08-08T14:19:56.244Z,1.80
2022-08-08T14:22:52.936Z,1.70
2022-08-08T14:26:00.667Z,1.75
2022-08-08T14:29:28.529Z,1.60
2022-08-08T14:32:31.875Z,1.75
2022-08-08T14:35:36.134Z,1.60
2022-08-08T14:38:52.149Z,1.38
2022-08-08T14:41:59.878Z,1.55
2022-08-08T14:45:05.202Z,1.80
2022-08-08T14:48:11.724Z,1.50
2022-08-08T14:51:18.839Z,1.67
2022-08-08T14:54:29.457Z,1.77
2022-08-08T14:58:03.341Z,1.15
2022-08-08T15:00:52.752Z,1.70
2022-08-08T15:04:08.561Z,1.50
2022-08-08T15:07:22.646Z,2.05
2022-08-08T15:10:24.652Z,1.50
2022-08-08T15:13:35.194Z,1.50
2022-08-08T15:16:44.490Z,1.38
2022-08-08T15:22:48.029Z,1.40
2022-08-08T15:25:49.453Z,1.27
2022-08-08T15:28:53.952Z,1.52
2022-08-08T15:32:19.346Z,1.50
2022-08-08T15:35:17.345Z,1.30
2022-08-08T15:38:22.713Z,1.20
2022-08-08T15:41:37.272Z,1.30
2022-08-08T15:44:45.717Z,1.50
2022-08-08T15:48:04.235Z,1.48
2022-08-08T15:51:08.666Z,1.20
2022-08-08T15:54:18.367Z,1.15
2022-08-08T15:57:21.724Z,1.55
2022-08-08T16:00:27.117Z,1.35
2022-08-08T16:03:30.123Z,1.90
2022-08-08T16:06:31.671Z,1.52
2022-08-08T16:13:10.582Z,1.60
2022-08-08T16:13:14.267Z,1.27
2022-08-08T16:16:17.905Z,1.38
2022-08-08T16:19:19.946Z,1.42
2022-08-08T16:22:30.369Z,1.20
2022-08-08T16:25:46.095Z,1.45
2022-08-08T16:28:55.067Z,1.40
2022-08-08T16:31:58.722Z,1.50
2022-08-08T16:35:02.452Z,1.30
2022-08-08T16:38:08.683Z,1.60
2022-08-08T16:41:20.593Z,1.50
2022-08-08T16:44:27.741Z,1.60
2022-08-08T16:47:42.302Z,1.40
2022-08-08T16:50:44.249Z,1.33
2022-08-08T16:55:07.192Z,1.60
2022-08-08T16:57:43.547Z,1.30
2022-08-08T17:00:28.553Z,1.30
2022-08-08T17:04:00.310Z,1.48
2022-08-08T17:06:54.868Z,1.45
2022-08-08T17:09:56.382Z,1.50
2022-08-08T17:13:00.196Z,1.58
2022-08-08T17:16:01.910Z,1.60
2022-08-08T17:19:04.354Z,1.60
2022-08-08T17:22:05.816Z,1.60
2022-08-08T17:25:08.059Z,1.88
2022-08-08T17:28:13.271Z,1.70
2022-08-08T17:31:45.377Z,1.48
2022-08-08T17:35:52.709Z,1.77
2022-08-08T17:37:57.849Z,1.63
2022-08-08T17:40:59.379Z,1.92
2022-08-08T17:44:02.236Z,1.65
2022-08-08T17:47:04.756Z,1.75
2022-08-08T17:50:11.153Z,1.58
2022-08-08T17:53:12.593Z,1.50
2022-08-08T17:56:14.689Z,1.50
2022-08-08T17:59:16.595Z,1.30
2022-08-08T18:02:26.083Z,1.15
2022-08-08T18:05:30.861Z,1.30
2022-08-08T18:08:50.418Z,1.60
2022-08-08T18:12:01.165Z,1.30
2022-08-08T18:15:03.737Z,1.58
2022-08-08T18:18:28.705Z,1.52
2022-08-08T18:21:59.215Z,1.60
2022-08-08T18:24:55.146Z,1.50
2022-08-08T18:27:56.593Z,1.70
2022-08-08T18:31:00.954Z,1.58
2022-08-08T18:34:25.146Z,1.73
2022-08-08T18:37:34.760Z,1.50
2022-08-08T18:40:36.418Z,1.98
2022-08-08T18:43:43.119Z,1.83
2022-08-08T18:46:55.594Z,1.98
2022-08-08T18:50:00.300Z,2.10
2022-08-08T18:53:04.312Z,1.67
2022-08-08T18:56:05.903Z,2.28
2022-08-08T18:59:07.469Z,2.05
2022-08-08T19:02:25.391Z,2.05
2022-08-08T19:05:38.547Z,2.00
2022-08-08T19:08:47.052Z,2.00
2022-08-08T19:11:50.479Z,2.10
2022-08-08T19:14:52.118Z,2.10
2022-08-08T19:18:31.905Z,1.90
2022-08-08T19:21:29.162Z,1.90
2022-08-08T19:24:50.929Z,2.10
2022-08-08T19:28:00.017Z,2.05
2022-08-08T19:31:04.254Z,2.25
2022-08-08T19:34:35.649Z,1.98
2022-08-08T19:37:43.050Z,2.42
2022-08-08T19:40:46.354Z,2.60
2022-08-08T19:44:02.442Z,2.60
2022-08-08T19:47:06.483Z,4.47
2022-08-08T19:50:09.262Z,2.40
2022-08-08T19:53:51.674Z,2.40
2022-08-08T19:56:40.645Z,2.60
2022-08-08T19:59:42.902Z,2.30
2022-08-08T20:02:46.433Z,2.40
2022-08-08T20:06:14.972Z,2.25
2022-08-08T20:09:15.946Z,2.33
2022-08-08T20:12:32.713Z,2.60
2022-08-08T20:16:00.111Z,2.22
2022-08-08T20:19:02.946Z,2.40
2022-08-08T20:22:13.087Z,2.60
2022-08-08T20:25:26.423Z,2.47
2022-08-08T20:28:33.646Z,2.63
2022-08-08T20:31:47.305Z,2.63
2022-08-08T20:35:01.286Z,2.67
2022-08-08T20:38:03.628Z,2.90
2022-08-08T20:41:17.782Z,3.10
2022-08-08T20:44:20.990Z,2.78
2022-08-08T20:47:26.893Z,2.97
2022-08-08T20:50:37.763Z,2.75
2022-08-08T20:54:00.430Z,3.00
2022-08-08T20:57:04.520Z,3.15
2022-08-08T21:00:20.501Z,2.97
2022-08-08T21:03:25.128Z,3.13
2022-08-08T21:06:52.636Z,3.60
2022-08-08T21:10:02.339Z,3.13
2022-08-08T21:13:13.663Z,3.60
2022-08-08T21:16:20.283Z,3.38
2022-08-08T21:19:44.411Z,2.83
2022-08-08T21:22:48.739Z,3.00
2022-08-08T21:25:50.210Z,2.90
2022-08-08T21:28:53.218Z,3.00
2022-08-08T21:31:59.387Z,3.22
2022-08-08T21:36:17.943Z,3.08
2022-08-08T21:38:23.111Z,3.20
2022-08-08T21:41:38.138Z,3.05
2022-08-08T21:44:58.936Z,3.40
2022-08-08T21:48:19.834Z,3.60
2022-08-08T21:54:17.223Z,3.40
2022-08-08T21:54:54.301Z,3.30
2022-08-08T21:58:05.829Z,3.70
2022-08-08T22:01:27.898Z,3.63
2022-08-08T22:04:32.723Z,3.30
2022-08-08T22:07:39.789Z,3.78
2022-08-08T22:10:42.479Z,3.63
2022-08-08T22:16:53.772Z,3.63
2022-08-08T22:20:13.024Z,4.05
2022-08-08T22:23:17.089Z,4.20
2022-08-08T22:26:29.039Z,4.20
2022-08-08T22:29:58.672Z,3.88
2022-08-08T22:32:53.054Z,3.75
2022-08-08T22:36:05.225Z,4.60
2022-08-08T22:39:19.114Z,4.50
2022-08-08T22:42:27.056Z,4.60
2022-08-08T22:45:29.233Z,4.55
2022-08-08T22:48:30.665Z,4.57
2022-08-08T22:51:35.096Z,4.70
2022-08-08T22:54:59.039Z,4.25
2022-08-08T22:58:07.157Z,4.45
2022-08-08T23:01:32.949Z,4.88
2022-08-08T23:04:33.551Z,4.75
2022-08-08T23:07:51.309Z,5.10
2022-08-08T23:11:05.748Z,4.93
2022-08-08T23:14:07.974Z,5.20
2022-08-08T23:17:13.525Z,5.07
2022-08-08T23:20:18.369Z,5.40
2022-08-08T23:23:21.372Z,5.68
2022-08-08T23:26:24.611Z,5.78
2022-08-08T23:29:26.685Z,5.30
2022-08-08T23:32:31.712Z,5.60
2022-08-08T23:36:07.396Z,5.63
2022-08-08T23:38:56.085Z,6.07
2022-08-08T23:41:59.913Z,5.67
2022-08-08T23:45:01.968Z,5.35
2022-08-08T23:49:03.341Z,5.40
2022-08-08T23:51:42.656Z,5.72
2022-08-08T23:55:00.193Z,6.18
2022-08-08T23:58:08.405Z,5.75
